sensor_id;sensor_type;location;lat;lon;timestamp;P1;durP1;ratioP1;P2;durP2;ratioP2
41829;SDS011;38614;43.472;23.936;2023-09-08T00:02:18;3.58;;;1.52;;
41829;SDS011;38614;43.472;23.936;2023-09-08T00:05:06;9.60;;;1.70;;
41829;SDS011;38614;43.472;23.936;2023-09-08T00:07:54;8.35;;;1.08;;
41829;SDS011;38614;43.472;23.936;2023-09-08T00:10:42;2.38;;;0.88;;
41829;SDS011;38614;43.472;23.936;2023-09-08T00:13:30;2.92;;;1.00;;
41829;SDS011;38614;43.472;23.936;2023-09-08T00:16:18;1.40;;;0.60;;
41829;SDS011;38614;43.472;23.936;2023-09-08T00:19:06;3.63;;;0.70;;
41829;SDS011;38614;43.472;23.936;2023-09-08T00:21:54;5.72;;;1.00;;
41829;SDS011;38614;43.472;23.936;2023-09-08T00:24:41;2.13;;;1.55;;
41829;SDS011;38614;43.472;23.936;2023-09-08T00:27:30;6.28;;;1.10;;
41829;SDS011;38614;43.472;23.936;2023-09-08T00:30:18;4.03;;;1.02;;
41829;SDS011;38614;43.472;23.936;2023-09-08T00:33:06;3.15;;;1.02;;
41829;SDS011;38614;43.472;23.936;2023-09-08T00:35:56;4.28;;;1.27;;
41829;SDS011;38614;43.472;23.936;2023-09-08T00:38:44;3.33;;;1.55;;
41829;SDS011;38614;43.472;23.936;2023-09-08T00:41:32;1.75;;;0.82;;
41829;SDS011;38614;43.472;23.936;2023-09-08T00:44:20;2.30;;;1.13;;
41829;SDS011;38614;43.472;23.936;2023-09-08T00:47:10;5.47;;;1.20;;
41829;SDS011;38614;43.472;23.936;2023-09-08T00:49:58;5.75;;;2.13;;
41829;SDS011;38614;43.472;23.936;2023-09-08T00:52:47;3.63;;;0.50;;
41829;SDS011;38614;43.472;23.936;2023-09-08T00:55:37;1.63;;;1.17;;
41829;SDS011;38614;43.472;23.936;2023-09-08T00:58:28;1.83;;;0.95;;
41829;SDS011;38614;43.472;23.936;2023-09-08T01:01:16;2.03;;;0.98;;
41829;SDS011;38614;43.472;23.936;2023-09-08T01:04:04;2.80;;;1.08;;
41829;SDS011;38614;43.472;23.936;2023-09-08T01:06:53;2.15;;;0.93;;
41829;SDS011;38614;43.472;23.936;2023-09-08T01:09:42;5.03;;;0.77;;
41829;SDS011;38614;43.472;23.936;2023-09-08T01:12:32;5.40;;;1.13;;
41829;SDS011;38614;43.472;23.936;2023-09-08T01:15:22;1.65;;;1.02;;
41829;SDS011;38614;43.472;23.936;2023-09-08T01:18:10;6.07;;;1.05;;
41829;SDS011;38614;43.472;23.936;2023-09-08T01:27:24;1.73;;;0.90;;
41829;SDS011;38614;43.472;23.936;2023-09-08T01:30:14;4.22;;;1.25;;
41829;SDS011;38614;43.472;23.936;2023-09-08T01:33:03;9.25;;;1.48;;
41829;SDS011;38614;43.472;23.936;2023-09-08T01:35:52;3.92;;;0.95;;
41829;SDS011;38614;43.472;23.936;2023-09-08T01:38:40;2.95;;;1.27;;
41829;SDS011;38614;43.472;23.936;2023-09-08T01:41:28;4.43;;;1.88;;
41829;SDS011;38614;43.472;23.936;2023-09-08T01:44:18;2.85;;;1.55;;
41829;SDS011;38614;43.472;23.936;2023-09-08T01:47:06;2.90;;;1.48;;
41829;SDS011;38614;43.472;23.936;2023-09-08T01:49:53;3.17;;;1.63;;
41829;SDS011;38614;43.472;23.936;2023-09-08T01:52:41;5.32;;;1.48;;
41829;SDS011;38614;43.472;23.936;2023-09-08T01:55:29;2.85;;;1.40;;
41829;SDS011;38614;43.472;23.936;2023-09-08T01:58:17;4.68;;;1.58;;
41829;SDS011;38614;43.472;23.936;2023-09-08T02:01:05;5.57;;;1.30;;
41829;SDS011;38614;43.472;23.936;2023-09-08T02:03:54;5.28;;;2.78;;
41829;SDS011;38614;43.472;23.936;2023-09-08T02:06:42;2.53;;;1.60;;
41829;SDS011;38614;43.472;23.936;2023-09-08T02:09:31;6.80;;;1.52;;
41829;SDS011;38614;43.472;23.936;2023-09-08T02:12:22;3.65;;;1.38;;
41829;SDS011;38614;43.472;23.936;2023-09-08T02:15:10;7.10;;;1.80;;
41829;SDS011;38614;43.472;23.936;2023-09-08T02:17:59;7.80;;;1.98;;
41829;SDS011;38614;43.472;23.936;2023-09-08T02:20:46;7.65;;;1.83;;
41829;SDS011;38614;43.472;23.936;2023-09-08T02:23:34;4.10;;;1.45;;
41829;SDS011;38614;43.472;23.936;2023-09-08T02:26:22;5.53;;;1.67;;
41829;SDS011;38614;43.472;23.936;2023-09-08T02:29:11;5.07;;;2.13;;
41829;SDS011;38614;43.472;23.936;2023-09-08T02:31:59;2.88;;;1.80;;
41829;SDS011;38614;43.472;23.936;2023-09-08T02:34:47;2.22;;;1.50;;
41829;SDS011;38614;43.472;23.936;2023-09-08T02:37:36;2.65;;;1.58;;
41829;SDS011;38614;43.472;23.936;2023-09-08T02:40:25;7.93;;;2.28;;
41829;SDS011;38614;43.472;23.936;2023-09-08T02:43:12;3.45;;;2.28;;
41829;SDS011;38614;43.472;23.936;2023-09-08T02:46:01;5.43;;;1.92;;
41829;SDS011;38614;43.472;23.936;2023-09-08T02:48:51;4.22;;;1.95;;
41829;SDS011;38614;43.472;23.936;2023-09-08T02:51:41;3.38;;;1.83;;
41829;SDS011;38614;43.472;23.936;2023-09-08T02:54:29;6.03;;;1.80;;
41829;SDS011;38614;43.472;23.936;2023-09-08T02:57:16;6.35;;;2.65;;
41829;SDS011;38614;43.472;23.936;2023-09-08T03:00:05;5.35;;;1.58;;
41829;SDS011;38614;43.472;23.936;2023-09-08T03:02:56;4.68;;;2.30;;
41829;SDS011;38614;43.472;23.936;2023-09-08T03:05:45;5.53;;;1.88;;
41829;SDS011;38614;43.472;23.936;2023-09-08T03:08:34;6.07;;;2.65;;
41829;SDS011;38614;43.472;23.936;2023-09-08T03:11:24;7.13;;;2.72;;
41829;SDS011;38614;43.472;23.936;2023-09-08T03:14:12;4.85;;;1.98;;
41829;SDS011;38614;43.472;23.936;2023-09-08T03:16:59;6.50;;;2.13;;
41829;SDS011;38614;43.472;23.936;2023-09-08T03:19:47;3.88;;;2.15;;
41829;SDS011;38614;43.472;23.936;2023-09-08T03:22:35;3.90;;;2.35;;
41829;SDS011;38614;43.472;23.936;2023-09-08T03:25:23;12.13;;;2.25;;
41829;SDS011;38614;43.472;23.936;2023-09-08T03:28:11;5.63;;;2.35;;
41829;SDS011;38614;43.472;23.936;2023-09-08T03:30:59;13.15;;;3.10;;
41829;SDS011;38614;43.472;23.936;2023-09-08T03:33:52;5.15;;;2.80;;
41829;SDS011;38614;43.472;23.936;2023-09-08T03:36:40;6.03;;;2.35;;
41829;SDS011;38614;43.472;23.936;2023-09-08T03:39:29;12.13;;;2.53;;
41829;SDS011;38614;43.472;23.936;2023-09-08T03:42:21;9.20;;;2.38;;
41829;SDS011;38614;43.472;23.936;2023-09-08T03:45:11;4.78;;;2.35;;
41829;SDS011;38614;43.472;23.936;2023-09-08T03:48:01;7.70;;;2.40;;
41829;SDS011;38614;43.472;23.936;2023-09-08T03:50:49;10.15;;;3.05;;
41829;SDS011;38614;43.472;23.936;2023-09-08T03:53:38;5.75;;;2.15;;
41829;SDS011;38614;43.472;23.936;2023-09-08T03:56:27;6.18;;;2.05;;
41829;SDS011;38614;43.472;23.936;2023-09-08T03:59:15;5.45;;;1.88;;
41829;SDS011;38614;43.472;23.936;2023-09-08T04:02:03;4.03;;;2.35;;
41829;SDS011;38614;43.472;23.936;2023-09-08T04:04:54;11.50;;;2.22;;
41829;SDS011;38614;43.472;23.936;2023-09-08T04:07:42;6.13;;;2.50;;
41829;SDS011;38614;43.472;23.936;2023-09-08T04:10:30;3.95;;;2.28;;
41829;SDS011;38614;43.472;23.936;2023-09-08T04:13:17;9.60;;;3.08;;
41829;SDS011;38614;43.472;23.936;2023-09-08T04:16:05;9.25;;;2.55;;
41829;SDS011;38614;43.472;23.936;2023-09-08T04:18:53;5.20;;;2.28;;
41829;SDS011;38614;43.472;23.936;2023-09-08T04:21:42;10.38;;;2.50;;
41829;SDS011;38614;43.472;23.936;2023-09-08T04:24:34;14.65;;;4.07;;
41829;SDS011;38614;43.472;23.936;2023-09-08T04:27:23;9.88;;;2.95;;
41829;SDS011;38614;43.472;23.936;2023-09-08T04:30:11;7.80;;;3.25;;
41829;SDS011;38614;43.472;23.936;2023-09-08T04:33:00;19.35;;;7.22;;
41829;SDS011;38614;43.472;23.936;2023-09-08T04:35:48;31.65;;;10.13;;
41829;SDS011;38614;43.472;23.936;2023-09-08T04:38:36;24.20;;;7.72;;
41829;SDS011;38614;43.472;23.936;2023-09-08T04:41:23;29.70;;;6.75;;
41829;SDS011;38614;43.472;23.936;2023-09-08T04:44:11;30.08;;;6.45;;
41829;SDS011;38614;43.472;23.936;2023-09-08T04:46:59;24.30;;;7.28;;
41829;SDS011;38614;43.472;23.936;2023-09-08T04:49:47;18.48;;;7.47;;
41829;SDS011;38614;43.472;23.936;2023-09-08T04:52:35;38.38;;;12.48;;
41829;SDS011;38614;43.472;23.936;2023-09-08T04:55:24;24.25;;;9.40;;
41829;SDS011;38614;43.472;23.936;2023-09-08T04:58:12;20.45;;;7.18;;
41829;SDS011;38614;43.472;23.936;2023-09-08T05:01:00;13.55;;;4.68;;
41829;SDS011;38614;43.472;23.936;2023-09-08T05:03:48;9.27;;;3.90;;
41829;SDS011;38614;43.472;23.936;2023-09-08T05:09:44;14.23;;;3.63;;
41829;SDS011;38614;43.472;23.936;2023-09-08T05:12:32;8.43;;;3.80;;
41829;SDS011;38614;43.472;23.936;2023-09-08T05:15:19;5.35;;;3.25;;
41829;SDS011;38614;43.472;23.936;2023-09-08T05:20:59;4.22;;;2.22;;
41829;SDS011;38614;43.472;23.936;2023-09-08T05:23:48;6.43;;;3.25;;
41829;SDS011;38614;43.472;23.936;2023-09-08T05:26:36;8.75;;;3.25;;
41829;SDS011;38614;43.472;23.936;2023-09-08T05:29:25;12.88;;;2.90;;
41829;SDS011;38614;43.472;23.936;2023-09-08T05:32:13;12.77;;;2.88;;
41829;SDS011;38614;43.472;23.936;2023-09-08T05:35:01;6.22;;;2.28;;
41829;SDS011;38614;43.472;23.936;2023-09-08T05:37:49;6.63;;;3.95;;
41829;SDS011;38614;43.472;23.936;2023-09-08T05:40:37;18.65;;;3.70;;
41829;SDS011;38614;43.472;23.936;2023-09-08T05:43:25;7.30;;;2.80;;
41829;SDS011;38614;43.472;23.936;2023-09-08T05:46:14;5.65;;;3.60;;
41829;SDS011;38614;43.472;23.936;2023-09-08T05:49:02;9.18;;;3.22;;
41829;SDS011;38614;43.472;23.936;2023-09-08T05:51:51;8.40;;;3.25;;
41829;SDS011;38614;43.472;23.936;2023-09-08T05:54:39;9.65;;;3.92;;
41829;SDS011;38614;43.472;23.936;2023-09-08T05:57:26;10.18;;;2.88;;
41829;SDS011;38614;43.472;23.936;2023-09-08T06:00:14;4.72;;;2.75;;
41829;SDS011;38614;43.472;23.936;2023-09-08T06:03:06;9.85;;;4.97;;
41829;SDS011;38614;43.472;23.936;2023-09-08T06:05:58;5.47;;;2.90;;
41829;SDS011;38614;43.472;23.936;2023-09-08T06:08:46;28.42;;;3.65;;
41829;SDS011;38614;43.472;23.936;2023-09-08T06:11:34;5.35;;;3.15;;
41829;SDS011;38614;43.472;23.936;2023-09-08T06:14:23;11.23;;;2.70;;
41829;SDS011;38614;43.472;23.936;2023-09-08T06:17:11;7.32;;;4.03;;
41829;SDS011;38614;43.472;23.936;2023-09-08T06:19:58;6.47;;;2.30;;
41829;SDS011;38614;43.472;23.936;2023-09-08T06:22:46;5.90;;;2.70;;
41829;SDS011;38614;43.472;23.936;2023-09-08T06:25:34;7.47;;;3.20;;
41829;SDS011;38614;43.472;23.936;2023-09-08T06:28:23;4.82;;;2.30;;
41829;SDS011;38614;43.472;23.936;2023-09-08T06:31:11;3.42;;;2.55;;
41829;SDS011;38614;43.472;23.936;2023-09-08T06:34:01;7.40;;;1.63;;
41829;SDS011;38614;43.472;23.936;2023-09-08T06:36:49;6.28;;;2.33;;
41829;SDS011;38614;43.472;23.936;2023-09-08T06:39:37;6.68;;;2.88;;
41829;SDS011;38614;43.472;23.936;2023-09-08T06:42:28;15.27;;;3.03;;
41829;SDS011;38614;43.472;23.936;2023-09-08T06:45:30;8.40;;;2.55;;
41829;SDS011;38614;43.472;23.936;2023-09-08T06:48:25;3.53;;;1.95;;
41829;SDS011;38614;43.472;23.936;2023-09-08T06:51:14;11.67;;;2.20;;
41829;SDS011;38614;43.472;23.936;2023-09-08T06:54:03;2.80;;;2.10;;
41829;SDS011;38614;43.472;23.936;2023-09-08T06:57:00;3.95;;;1.98;;
41829;SDS011;38614;43.472;23.936;2023-09-08T06:59:48;10.60;;;2.15;;
41829;SDS011;38614;43.472;23.936;2023-09-08T07:02:36;6.15;;;2.55;;
41829;SDS011;38614;43.472;23.936;2023-09-08T07:05:24;7.85;;;2.33;;
41829;SDS011;38614;43.472;23.936;2023-09-08T07:08:12;7.22;;;2.13;;
41829;SDS011;38614;43.472;23.936;2023-09-08T07:11:00;4.10;;;2.08;;
41829;SDS011;38614;43.472;23.936;2023-09-08T07:13:48;2.97;;;1.48;;
41829;SDS011;38614;43.472;23.936;2023-09-08T07:16:36;4.35;;;1.30;;
41829;SDS011;38614;43.472;23.936;2023-09-08T07:19:26;3.28;;;2.03;;
41829;SDS011;38614;43.472;23.936;2023-09-08T07:22:14;5.72;;;1.40;;
41829;SDS011;38614;43.472;23.936;2023-09-08T07:25:02;2.97;;;1.73;;
41829;SDS011;38614;43.472;23.936;2023-09-08T07:27:51;7.10;;;2.03;;
41829;SDS011;38614;43.472;23.936;2023-09-08T07:30:42;11.95;;;2.10;;
41829;SDS011;38614;43.472;23.936;2023-09-08T07:33:31;7.45;;;1.85;;
41829;SDS011;38614;43.472;23.936;2023-09-08T07:36:19;3.78;;;1.30;;
41829;SDS011;38614;43.472;23.936;2023-09-08T07:39:08;6.40;;;2.35;;
41829;SDS011;38614;43.472;23.936;2023-09-08T07:41:56;5.15;;;1.98;;
41829;SDS011;38614;43.472;23.936;2023-09-08T07:44:47;2.47;;;1.17;;
41829;SDS011;38614;43.472;23.936;2023-09-08T07:47:35;5.90;;;1.27;;
41829;SDS011;38614;43.472;23.936;2023-09-08T07:50:26;3.38;;;1.40;;
41829;SDS011;38614;43.472;23.936;2023-09-08T07:53:15;4.63;;;1.45;;
41829;SDS011;38614;43.472;23.936;2023-09-08T07:56:03;2.45;;;1.45;;
41829;SDS011;38614;43.472;23.936;2023-09-08T07:58:51;5.88;;;1.40;;
41829;SDS011;38614;43.472;23.936;2023-09-08T08:01:39;2.10;;;1.30;;
41829;SDS011;38614;43.472;23.936;2023-09-08T08:04:27;3.63;;;0.90;;
41829;SDS011;38614;43.472;23.936;2023-09-08T08:07:15;4.50;;;1.50;;
41829;SDS011;38614;43.472;23.936;2023-09-08T08:10:02;4.40;;;1.50;;
41829;SDS011;38614;43.472;23.936;2023-09-08T08:12:50;7.88;;;1.50;;
41829;SDS011;38614;43.472;23.936;2023-09-08T08:15:39;3.85;;;1.15;;
41829;SDS011;38614;43.472;23.936;2023-09-08T08:18:28;2.15;;;0.73;;
41829;SDS011;38614;43.472;23.936;2023-09-08T08:21:16;5.25;;;0.98;;
41829;SDS011;38614;43.472;23.936;2023-09-08T08:24:04;2.78;;;1.02;;
41829;SDS011;38614;43.472;23.936;2023-09-08T08:26:52;6.68;;;1.05;;
41829;SDS011;38614;43.472;23.936;2023-09-08T08:29:40;1.52;;;0.70;;
41829;SDS011;38614;43.472;23.936;2023-09-08T08:32:27;0.70;;;0.45;;
41829;SDS011;38614;43.472;23.936;2023-09-08T08:35:16;7.30;;;0.80;;
41829;SDS011;38614;43.472;23.936;2023-09-08T08:38:03;4.45;;;0.70;;
41829;SDS011;38614;43.472;23.936;2023-09-08T08:40:51;2.05;;;0.70;;
41829;SDS011;38614;43.472;23.936;2023-09-08T08:43:39;2.10;;;1.00;;
41829;SDS011;38614;43.472;23.936;2023-09-08T08:46:28;5.13;;;1.42;;
41829;SDS011;38614;43.472;23.936;2023-09-08T08:49:17;4.00;;;0.70;;
41829;SDS011;38614;43.472;23.936;2023-09-08T08:52:06;0.98;;;0.80;;
41829;SDS011;38614;43.472;23.936;2023-09-08T08:54:56;2.53;;;0.82;;
41829;SDS011;38614;43.472;23.936;2023-09-08T08:57:44;5.72;;;0.93;;
41829;SDS011;38614;43.472;23.936;2023-09-08T09:00:35;2.10;;;0.85;;
41829;SDS011;38614;43.472;23.936;2023-09-08T09:03:26;5.88;;;0.82;;
41829;SDS011;38614;43.472;23.936;2023-09-08T09:06:17;3.10;;;0.70;;
41829;SDS011;38614;43.472;23.936;2023-09-08T09:09:05;10.98;;;2.28;;
41829;SDS011;38614;43.472;23.936;2023-09-08T09:11:55;3.70;;;1.40;;
41829;SDS011;38614;43.472;23.936;2023-09-08T09:14:46;3.72;;;1.35;;
41829;SDS011;38614;43.472;23.936;2023-09-08T09:17:37;4.80;;;1.42;;
41829;SDS011;38614;43.472;23.936;2023-09-08T09:20:25;2.53;;;1.05;;
41829;SDS011;38614;43.472;23.936;2023-09-08T09:23:16;2.30;;;1.33;;
41829;SDS011;38614;43.472;23.936;2023-09-08T09:26:24;2.00;;;1.08;;
41829;SDS011;38614;43.472;23.936;2023-09-08T09:29:13;8.15;;;0.90;;
41829;SDS011;38614;43.472;23.936;2023-09-08T09:32:05;1.40;;;0.70;;
41829;SDS011;38614;43.472;23.936;2023-09-08T09:34:56;9.65;;;1.90;;
41829;SDS011;38614;43.472;23.936;2023-09-08T09:37:46;1.48;;;0.60;;
41829;SDS011;38614;43.472;23.936;2023-09-08T09:40:34;7.43;;;1.05;;
41829;SDS011;38614;43.472;23.936;2023-09-08T09:43:22;2.05;;;0.90;;
41829;SDS011;38614;43.472;23.936;2023-09-08T09:46:11;7.03;;;1.00;;
41829;SDS011;38614;43.472;23.936;2023-09-08T09:48:58;5.50;;;1.10;;
41829;SDS011;38614;43.472;23.936;2023-09-08T09:51:47;4.88;;;1.25;;
41829;SDS011;38614;43.472;23.936;2023-09-08T09:54:37;5.97;;;0.90;;
41829;SDS011;38614;43.472;23.936;2023-09-08T09:57:25;2.60;;;0.77;;
41829;SDS011;38614;43.472;23.936;2023-09-08T10:00:14;2.00;;;0.70;;
41829;SDS011;38614;43.472;23.936;2023-09-08T10:03:03;4.90;;;0.70;;
41829;SDS011;38614;43.472;23.936;2023-09-08T10:05:53;2.17;;;0.82;;
41829;SDS011;38614;43.472;23.936;2023-09-08T10:08:41;6.72;;;0.60;;
41829;SDS011;38614;43.472;23.936;2023-09-08T10:11:35;3.53;;;0.77;;
41829;SDS011;38614;43.472;23.936;2023-09-08T10:14:30;1.95;;;0.85;;
41829;SDS011;38614;43.472;23.936;2023-09-08T10:17:19;1.25;;;0.40;;
41829;SDS011;38614;43.472;23.936;2023-09-08T10:20:12;2.03;;;1.73;;
41829;SDS011;38614;43.472;23.936;2023-09-08T10:23:07;13.00;;;1.30;;
41829;SDS011;38614;43.472;23.936;2023-09-08T10:26:03;1.27;;;0.80;;
41829;SDS011;38614;43.472;23.936;2023-09-08T10:28:55;1.75;;;0.55;;
41829;SDS011;38614;43.472;23.936;2023-09-08T10:31:44;7.32;;;0.82;;
41829;SDS011;38614;43.472;23.936;2023-09-08T10:34:32;1.55;;;0.80;;
41829;SDS011;38614;43.472;23.936;2023-09-08T10:37:22;6.45;;;0.95;;
41829;SDS011;38614;43.472;23.936;2023-09-08T10:43:11;1.08;;;0.40;;
41829;SDS011;38614;43.472;23.936;2023-09-08T10:45:59;1.75;;;1.20;;
41829;SDS011;38614;43.472;23.936;2023-09-08T10:49:00;5.13;;;0.68;;
41829;SDS011;38614;43.472;23.936;2023-09-08T10:52:05;5.65;;;0.65;;
41829;SDS011;38614;43.472;23.936;2023-09-08T10:54:56;3.53;;;0.85;;
41829;SDS011;38614;43.472;23.936;2023-09-08T10:57:45;1.30;;;0.47;;
41829;SDS011;38614;43.472;23.936;2023-09-08T11:00:46;4.93;;;1.20;;
41829;SDS011;38614;43.472;23.936;2023-09-08T11:06:25;1.83;;;0.57;;
41829;SDS011;38614;43.472;23.936;2023-09-08T11:09:17;2.13;;;0.82;;
41829;SDS011;38614;43.472;23.936;2023-09-08T11:12:05;1.85;;;0.40;;
41829;SDS011;38614;43.472;23.936;2023-09-08T11:14:55;3.60;;;0.70;;
41829;SDS011;38614;43.472;23.936;2023-09-08T11:17:43;7.28;;;0.80;;
41829;SDS011;38614;43.472;23.936;2023-09-08T11:20:32;7.85;;;0.60;;
41829;SDS011;38614;43.472;23.936;2023-09-08T11:23:20;4.43;;;0.60;;
41829;SDS011;38614;43.472;23.936;2023-09-08T11:26:08;1.40;;;0.60;;
41829;SDS011;38614;43.472;23.936;2023-09-08T11:28:56;1.38;;;1.08;;
41829;SDS011;38614;43.472;23.936;2023-09-08T11:31:44;6.40;;;0.50;;
41829;SDS011;38614;43.472;23.936;2023-09-08T11:34:32;3.35;;;0.60;;
41829;SDS011;38614;43.472;23.936;2023-09-08T11:37:20;1.00;;;0.30;;
41829;SDS011;38614;43.472;23.936;2023-09-08T11:40:08;5.20;;;0.47;;
41829;SDS011;38614;43.472;23.936;2023-09-08T11:43:01;3.03;;;0.40;;
41829;SDS011;38614;43.472;23.936;2023-09-08T11:45:49;6.03;;;1.05;;
41829;SDS011;38614;43.472;23.936;2023-09-08T11:48:35;6.05;;;1.02;;
41829;SDS011;38614;43.472;23.936;2023-09-08T11:51:23;11.80;;;0.68;;
41829;SDS011;38614;43.472;23.936;2023-09-08T11:54:11;0.65;;;0.43;;
41829;SDS011;38614;43.472;23.936;2023-09-08T11:57:00;5.90;;;0.47;;
41829;SDS011;38614;43.472;23.936;2023-09-08T11:59:52;11.27;;;2.08;;
41829;SDS011;38614;43.472;23.936;2023-09-08T12:02:40;8.27;;;0.90;;
41829;SDS011;38614;43.472;23.936;2023-09-08T12:05:28;2.17;;;0.68;;
41829;SDS011;38614;43.472;23.936;2023-09-08T12:08:16;2.25;;;0.82;;
41829;SDS011;38614;43.472;23.936;2023-09-08T12:11:04;3.65;;;0.57;;
41829;SDS011;38614;43.472;23.936;2023-09-08T12:13:59;0.77;;;0.47;;
41829;SDS011;38614;43.472;23.936;2023-09-08T12:16:48;2.50;;;0.50;;
41829;SDS011;38614;43.472;23.936;2023-09-08T12:19:36;3.92;;;0.60;;
41829;SDS011;38614;43.472;23.936;2023-09-08T12:22:26;4.13;;;0.35;;
41829;SDS011;38614;43.472;23.936;2023-09-08T12:25:15;2.17;;;0.70;;
41829;SDS011;38614;43.472;23.936;2023-09-08T12:28:03;3.33;;;0.90;;
41829;SDS011;38614;43.472;23.936;2023-09-08T12:30:52;2.25;;;0.73;;
41829;SDS011;38614;43.472;23.936;2023-09-08T12:33:43;1.25;;;0.77;;
41829;SDS011;38614;43.472;23.936;2023-09-08T12:36:31;1.85;;;0.55;;
41829;SDS011;38614;43.472;23.936;2023-09-08T12:39:23;0.68;;;0.45;;
41829;SDS011;38614;43.472;23.936;2023-09-08T12:42:10;1.75;;;0.50;;
41829;SDS011;38614;43.472;23.936;2023-09-08T12:44:58;0.30;;;0.30;;
41829;SDS011;38614;43.472;23.936;2023-09-08T12:47:46;6.60;;;0.43;;
41829;SDS011;38614;43.472;23.936;2023-09-08T12:50:33;7.22;;;1.20;;
41829;SDS011;38614;43.472;23.936;2023-09-08T12:53:21;4.68;;;0.82;;
41829;SDS011;38614;43.472;23.936;2023-09-08T12:56:10;2.10;;;0.77;;
41829;SDS011;38614;43.472;23.936;2023-09-08T12:58:58;6.90;;;0.55;;
41829;SDS011;38614;43.472;23.936;2023-09-08T13:01:46;4.55;;;0.60;;
41829;SDS011;38614;43.472;23.936;2023-09-08T13:04:34;10.88;;;0.88;;
41829;SDS011;38614;43.472;23.936;2023-09-08T13:07:22;2.53;;;0.70;;
41829;SDS011;38614;43.472;23.936;2023-09-08T13:10:10;1.30;;;0.85;;
41829;SDS011;38614;43.472;23.936;2023-09-08T13:12:58;2.35;;;0.90;;
41829;SDS011;38614;43.472;23.936;2023-09-08T13:15:46;1.60;;;0.70;;
41829;SDS011;38614;43.472;23.936;2023-09-08T13:18:34;1.08;;;0.52;;
41829;SDS011;38614;43.472;23.936;2023-09-08T13:21:25;5.78;;;1.70;;
41829;SDS011;38614;43.472;23.936;2023-09-08T13:24:13;2.95;;;1.05;;
41829;SDS011;38614;43.472;23.936;2023-09-08T13:27:01;5.93;;;0.70;;
41829;SDS011;38614;43.472;23.936;2023-09-08T13:29:49;5.38;;;0.82;;
41829;SDS011;38614;43.472;23.936;2023-09-08T13:32:57;5.47;;;1.13;;
41829;SDS011;38614;43.472;23.936;2023-09-08T13:35:45;8.15;;;0.93;;
41829;SDS011;38614;43.472;23.936;2023-09-08T13:38:33;5.60;;;0.57;;
41829;SDS011;38614;43.472;23.936;2023-09-08T13:41:24;2.25;;;0.80;;
41829;SDS011;38614;43.472;23.936;2023-09-08T13:44:11;3.30;;;0.43;;
41829;SDS011;38614;43.472;23.936;2023-09-08T13:46:59;2.50;;;0.77;;
41829;SDS011;38614;43.472;23.936;2023-09-08T13:49:48;0.90;;;0.35;;
41829;SDS011;38614;43.472;23.936;2023-09-08T13:52:37;5.18;;;0.50;;
41829;SDS011;38614;43.472;23.936;2023-09-08T13:55:29;2.35;;;0.80;;
41829;SDS011;38614;43.472;23.936;2023-09-08T13:58:24;9.32;;;0.90;;
41829;SDS011;38614;43.472;23.936;2023-09-08T14:01:12;6.75;;;0.43;;
41829;SDS011;38614;43.472;23.936;2023-09-08T14:04:06;0.60;;;0.35;;
41829;SDS011;38614;43.472;23.936;2023-09-08T14:09:48;1.70;;;0.50;;
41829;SDS011;38614;43.472;23.936;2023-09-08T14:12:42;4.65;;;0.80;;
41829;SDS011;38614;43.472;23.936;2023-09-08T14:15:29;7.43;;;0.52;;
41829;SDS011;38614;43.472;23.936;2023-09-08T14:18:17;2.80;;;0.85;;
41829;SDS011;38614;43.472;23.936;2023-09-08T14:21:05;0.52;;;0.52;;
41829;SDS011;38614;43.472;23.936;2023-09-08T14:23:54;7.00;;;0.55;;
41829;SDS011;38614;43.472;23.936;2023-09-08T14:26:41;3.83;;;0.50;;
41829;SDS011;38614;43.472;23.936;2023-09-08T14:29:29;7.10;;;0.63;;
41829;SDS011;38614;43.472;23.936;2023-09-08T14:32:17;2.85;;;0.70;;
41829;SDS011;38614;43.472;23.936;2023-09-08T14:35:05;6.82;;;0.68;;
41829;SDS011;38614;43.472;23.936;2023-09-08T14:37:53;5.85;;;0.88;;
41829;SDS011;38614;43.472;23.936;2023-09-08T14:40:41;2.42;;;0.35;;
41829;SDS011;38614;43.472;23.936;2023-09-08T14:43:29;14.15;;;1.75;;
41829;SDS011;38614;43.472;23.936;2023-09-08T14:46:17;5.28;;;0.80;;
41829;SDS011;38614;43.472;23.936;2023-09-08T14:49:00;5.10;;;1.08;;
41829;SDS011;38614;43.472;23.936;2023-09-08T14:51:47;1.75;;;0.50;;
41829;SDS011;38614;43.472;23.936;2023-09-08T14:54:35;0.60;;;0.20;;
41829;SDS011;38614;43.472;23.936;2023-09-08T14:57:23;2.35;;;0.75;;
41829;SDS011;38614;43.472;23.936;2023-09-08T15:00:11;7.38;;;0.82;;
41829;SDS011;38614;43.472;23.936;2023-09-08T15:03:00;6.38;;;0.43;;
41829;SDS011;38614;43.472;23.936;2023-09-08T15:05:51;3.53;;;0.85;;
41829;SDS011;38614;43.472;23.936;2023-09-08T15:08:40;2.30;;;1.13;;
41829;SDS011;38614;43.472;23.936;2023-09-08T15:11:33;5.78;;;0.82;;
41829;SDS011;38614;43.472;23.936;2023-09-08T15:14:22;6.15;;;1.08;;
41829;SDS011;38614;43.472;23.936;2023-09-08T15:17:10;3.58;;;1.23;;
41829;SDS011;38614;43.472;23.936;2023-09-08T15:22:55;14.82;;;1.67;;
41829;SDS011;38614;43.472;23.936;2023-09-08T15:25:53;3.58;;;1.80;;
41829;SDS011;38614;43.472;23.936;2023-09-08T15:28:54;4.65;;;0.88;;
41829;SDS011;38614;43.472;23.936;2023-09-08T15:31:43;7.45;;;0.75;;
41829;SDS011;38614;43.472;23.936;2023-09-08T15:34:31;4.93;;;1.23;;
41829;SDS011;38614;43.472;23.936;2023-09-08T15:37:19;4.25;;;0.73;;
41829;SDS011;38614;43.472;23.936;2023-09-08T15:40:10;2.78;;;0.52;;
41829;SDS011;38614;43.472;23.936;2023-09-08T15:43:01;3.95;;;1.08;;
41829;SDS011;38614;43.472;23.936;2023-09-08T15:45:51;3.80;;;0.95;;
41829;SDS011;38614;43.472;23.936;2023-09-08T15:48:39;7.15;;;1.00;;
41829;SDS011;38614;43.472;23.936;2023-09-08T15:51:27;11.77;;;1.17;;
41829;SDS011;38614;43.472;23.936;2023-09-08T15:54:15;2.40;;;0.65;;
41829;SDS011;38614;43.472;23.936;2023-09-08T15:57:03;4.60;;;1.40;;
41829;SDS011;38614;43.472;23.936;2023-09-08T15:59:50;6.00;;;0.93;;
41829;SDS011;38614;43.472;23.936;2023-09-08T16:02:38;4.93;;;0.80;;
41829;SDS011;38614;43.472;23.936;2023-09-08T16:05:27;2.83;;;0.60;;
41829;SDS011;38614;43.472;23.936;2023-09-08T16:08:15;3.25;;;0.70;;
41829;SDS011;38614;43.472;23.936;2023-09-08T16:11:02;2.35;;;0.70;;
41829;SDS011;38614;43.472;23.936;2023-09-08T16:13:53;3.38;;;0.60;;
41829;SDS011;38614;43.472;23.936;2023-09-08T16:23:54;7.50;;;1.55;;
41829;SDS011;38614;43.472;23.936;2023-09-08T16:27:32;5.30;;;1.73;;
41829;SDS011;38614;43.472;23.936;2023-09-08T16:30:41;3.72;;;1.15;;
41829;SDS011;38614;43.472;23.936;2023-09-08T16:33:40;7.03;;;1.02;;
41829;SDS011;38614;43.472;23.936;2023-09-08T16:36:28;1.88;;;1.20;;
41829;SDS011;38614;43.472;23.936;2023-09-08T16:39:16;4.07;;;1.70;;
41829;SDS011;38614;43.472;23.936;2023-09-08T16:42:04;5.97;;;1.35;;
41829;SDS011;38614;43.472;23.936;2023-09-08T16:44:54;12.48;;;2.72;;
41829;SDS011;38614;43.472;23.936;2023-09-08T16:47:47;11.27;;;2.97;;
41829;SDS011;38614;43.472;23.936;2023-09-08T16:50:35;4.00;;;2.42;;
41829;SDS011;38614;43.472;23.936;2023-09-08T16:53:26;5.35;;;1.15;;
41829;SDS011;38614;43.472;23.936;2023-09-08T16:56:13;5.32;;;1.50;;
41829;SDS011;38614;43.472;23.936;2023-09-08T16:59:01;10.90;;;1.80;;
41829;SDS011;38614;43.472;23.936;2023-09-08T17:02:18;9.85;;;1.52;;
41829;SDS011;38614;43.472;23.936;2023-09-08T17:05:10;4.43;;;1.55;;
41829;SDS011;38614;43.472;23.936;2023-09-08T17:08:19;9.52;;;2.20;;
41829;SDS011;38614;43.472;23.936;2023-09-08T17:11:08;6.28;;;2.17;;
41829;SDS011;38614;43.472;23.936;2023-09-08T17:14:23;15.65;;;1.85;;
41829;SDS011;38614;43.472;23.936;2023-09-08T17:17:11;6.07;;;1.33;;